map of BKZ home
BKZ - Airport
Location
City:  Bukoba, Kagera, Tanzania
Name:Bukoba Airport
ICAO:HTBU
IATA:BKZ

Details
Type:Airport (Aerodrome, Airfield)
Latitude:118'S (-1.300)
Longitude:3148'E (31.800)
Elevation:3745 ft (1141 m)
Variation:1.33E (WMM2015 magnetic declination)
0.07 annual change
Runways:unknown number
Longest:3445 ft (1050 m)

Time
Time Zone:UTC+3
Local Time:

Weather
METAR:HTBU 161000Z 05005KT 9999 FEW024 FEW026CB SCT260 28/20 Q1016

Related Locations
Nearby:
Farthest:CXI: 11816 mi / 19016 km
Christmas Island (Kiritimati) [Cassidy Intl], L, KI

Find:

   beyond  
but within

Other Information
Maps:
NOTAMs:
Links:
Sources:

  
  • flag of Tanzania
  

Sectional Chart

Flight Planning
at skyvector.com

Satellite Image

Google Maps Satellite view

 

Copyright © 2004-2018 Karl L. Swartz. All rights reserved.
The Great Circle Mapper name and logo are trademarks of the Great Circle Mapper.
All other trademarks mentioned herein belong to their respective owners.
Please see credits for attibutions and further copyright information.

  Follow gcmap on Facebook Follow gcmap on Twitter Follow gcmap on Google+ GCmap on LinkedIn

hCard Microformat

Geo Microformat